createdAt,value
2019-01-09T00:01:52.319Z,1.77
2019-01-09T00:04:35.297Z,1.98
2019-01-09T00:07:21.004Z,0.75
2019-01-09T00:18:22.510Z,1.60
2019-01-09T00:21:00.581Z,1.40
2019-01-09T00:23:39.559Z,0.65
2019-01-09T00:26:16.952Z,1.12
2019-01-09T00:29:05.010Z,2.35
2019-01-09T00:31:57.305Z,1.40
2019-01-09T00:43:33.547Z,1.25
2019-01-09T00:46:13.831Z,1.32
2019-01-09T00:48:57.349Z,1.05
2019-01-09T00:51:34.371Z,0.88
2019-01-09T00:54:26.587Z,0.60
2019-01-09T00:57:11.500Z,1.10
2019-01-09T01:00:01.699Z,0.90
2019-01-09T01:02:59.516Z,0.90
2019-01-09T01:18:38.833Z,1.40
2019-01-09T01:21:20.001Z,3.30
2019-01-09T01:26:16.434Z,1.87
2019-01-09T01:29:10.999Z,1.15
2019-01-09T01:31:55.808Z,1.17
2019-01-09T01:34:41.526Z,1.45
2019-01-09T01:37:57.632Z,1.05
2019-01-09T01:40:35.850Z,1.40
2019-01-09T01:43:22.385Z,1.42
2019-01-09T01:46:07.669Z,2.65
2019-01-09T01:48:46.307Z,0.88
2019-01-09T01:51:27.824Z,1.47
2019-01-09T01:54:13.059Z,1.62
2019-01-09T01:56:55.172Z,1.72
2019-01-09T01:59:35.724Z,1.27
2019-01-09T02:02:20.227Z,2.02
2019-01-09T02:05:06.972Z,1.37
2019-01-09T02:07:48.037Z,1.62
2019-01-09T02:10:32.060Z,1.55
2019-01-09T02:13:13.705Z,1.30
2019-01-09T02:16:02.942Z,1.47
2019-01-09T02:18:49.352Z,0.93
2019-01-09T02:21:30.762Z,1.32
2019-01-09T02:24:14.808Z,0.90
2019-01-09T02:26:58.516Z,1.10
2019-01-09T02:29:42.011Z,0.90
2019-01-09T02:32:22.881Z,1.30
2019-01-09T02:34:59.213Z,1.25
2019-01-09T02:37:34.814Z,0.90
2019-01-09T02:40:11.289Z,1.20
2019-01-09T02:42:47.952Z,1.10
2019-01-09T02:45:22.866Z,0.93
2019-01-09T02:47:57.976Z,1.65
2019-01-09T02:50:34.115Z,1.45
2019-01-09T02:53:11.689Z,1.40
2019-01-09T02:55:46.561Z,1.80
2019-01-09T02:58:22.327Z,1.25
2019-01-09T03:00:58.085Z,1.70
2019-01-09T03:03:34.500Z,2.02
2019-01-09T03:06:09.409Z,0.88
2019-01-09T03:08:44.311Z,1.60
2019-01-09T03:11:19.642Z,3.80
2019-01-09T03:13:54.829Z,1.00
2019-01-09T03:16:31.368Z,1.20
2019-01-09T03:19:12.900Z,1.15
2019-01-09T03:21:49.921Z,1.60
2019-01-09T03:24:24.808Z,1.30
2019-01-09T03:27:05.470Z,0.93
2019-01-09T03:29:42.834Z,1.50
2019-01-09T03:32:20.667Z,2.70
2019-01-09T03:34:55.439Z,1.92
2019-01-09T03:37:30.703Z,0.88
2019-01-09T03:40:06.244Z,1.12
2019-01-09T03:42:43.458Z,1.30
2019-01-09T03:45:18.826Z,1.40
2019-01-09T03:47:59.924Z,1.00
2019-01-09T03:50:35.710Z,1.30
2019-01-09T03:53:11.199Z,0.98
2019-01-09T03:55:46.926Z,1.20
2019-01-09T03:58:26.378Z,1.70
2019-01-09T04:00:59.491Z,1.42
2019-01-09T04:03:34.886Z,1.25
2019-01-09T04:06:12.194Z,1.70
2019-01-09T04:08:48.578Z,1.77
2019-01-09T04:11:23.822Z,1.32
2019-01-09T04:13:59.366Z,0.82
2019-01-09T04:16:53.102Z,0.70
2019-01-09T04:19:29.823Z,0.90
2019-01-09T04:22:05.218Z,1.25
2019-01-09T04:24:40.483Z,0.98
2019-01-09T04:27:17.335Z,1.47
2019-01-09T04:35:59.249Z,0.85
2019-01-09T04:38:36.875Z,1.00
2019-01-09T04:41:11.885Z,0.80
2019-01-09T04:43:48.289Z,0.80
2019-01-09T04:46:21.189Z,0.82
2019-01-09T04:49:02.733Z,1.02
2019-01-09T04:51:42.800Z,0.50
2019-01-09T04:54:19.879Z,0.60
2019-01-09T04:57:01.163Z,1.47
2019-01-09T05:02:33.728Z,0.85
2019-01-09T05:08:14.510Z,0.40
2019-01-09T05:10:51.643Z,0.93
2019-01-09T05:13:26.831Z,1.00
2019-01-09T05:19:00.611Z,0.70
2019-01-09T05:21:35.426Z,1.40
2019-01-09T05:24:11.053Z,0.80
2019-01-09T05:26:47.628Z,1.47
2019-01-09T05:29:22.279Z,1.20
2019-01-09T05:31:54.746Z,1.05
2019-01-09T05:34:30.622Z,1.95
2019-01-09T05:37:09.589Z,0.95
2019-01-09T05:39:41.179Z,1.20
2019-01-09T05:42:14.311Z,1.10
2019-01-09T05:44:49.759Z,1.07
2019-01-09T05:47:24.680Z,1.10
2019-01-09T05:50:00.573Z,1.67
2019-01-09T05:52:35.809Z,1.10
2019-01-09T05:55:10.918Z,1.10
2019-01-09T05:57:47.778Z,1.45
2019-01-09T06:00:22.749Z,1.22
2019-01-09T06:02:57.876Z,1.02
2019-01-09T06:05:32.771Z,0.98
2019-01-09T06:08:15.745Z,1.40
2019-01-09T06:10:50.528Z,1.47
2019-01-09T06:13:25.419Z,1.55
2019-01-09T06:16:03.864Z,1.52
2019-01-09T06:18:38.504Z,2.15
2019-01-09T06:21:13.600Z,1.02
2019-01-09T06:23:48.998Z,1.10
2019-01-09T06:26:28.015Z,2.45
2019-01-09T07:21:27.834Z,1.98
2019-01-09T07:24:19.928Z,1.95
2019-01-09T07:45:26.447Z,2.70
2019-01-09T08:06:12.447Z,1.95
2019-01-09T08:09:06.309Z,2.17
2019-01-09T08:14:35.792Z,2.12
2019-01-09T08:17:18.259Z,1.15
2019-01-09T08:19:57.334Z,2.52
2019-01-09T08:22:37.130Z,2.52
2019-01-09T08:25:15.943Z,1.35
2019-01-09T08:27:50.809Z,2.67
2019-01-09T08:33:13.044Z,1.62
2019-01-09T08:38:48.493Z,1.20
2019-01-09T08:41:27.262Z,2.65
2019-01-09T08:44:13.008Z,1.62
2019-01-09T08:46:57.604Z,1.22
2019-01-09T08:49:33.469Z,1.42
2019-01-09T08:52:15.565Z,1.27
2019-01-09T08:54:59.238Z,0.95
2019-01-09T08:57:40.030Z,0.93
2019-01-09T09:00:21.605Z,1.00
2019-01-09T09:02:57.495Z,1.40
2019-01-09T09:05:37.728Z,2.65
2019-01-09T09:08:19.662Z,1.05
2019-01-09T09:10:58.193Z,2.70
2019-01-09T09:13:42.730Z,2.17
2019-01-09T09:16:20.100Z,1.70
2019-01-09T09:18:59.673Z,0.65
2019-01-09T09:25:08.671Z,1.65
2019-01-09T09:27:54.393Z,2.35
2019-01-09T09:30:45.023Z,2.67
2019-01-09T09:33:22.856Z,1.70
2019-01-09T09:36:06.593Z,1.90
2019-01-09T09:38:45.425Z,1.85
2019-01-09T09:41:23.574Z,1.55
2019-01-09T09:44:00.998Z,2.40
2019-01-09T09:46:38.743Z,2.45
2019-01-09T09:49:19.073Z,2.05
2019-01-09T09:51:55.326Z,2.17
2019-01-09T09:54:32.333Z,1.72
2019-01-09T09:57:09.145Z,2.83
2019-01-09T09:59:46.973Z,1.45
2019-01-09T10:02:37.827Z,1.20
2019-01-09T10:05:15.488Z,1.42
2019-01-09T10:07:51.933Z,1.95
2019-01-09T10:10:36.727Z,1.20
2019-01-09T10:16:10.602Z,1.20
2019-01-09T10:18:51.178Z,1.80
2019-01-09T10:21:26.828Z,1.95
2019-01-09T10:24:05.203Z,3.08
2019-01-09T10:26:41.123Z,0.95
2019-01-09T10:29:16.437Z,2.02
2019-01-09T10:31:51.973Z,1.15
2019-01-09T10:34:26.871Z,1.20
2019-01-09T10:37:05.488Z,1.02
2019-01-09T10:39:40.748Z,1.42
2019-01-09T10:42:16.252Z,1.17
2019-01-09T10:44:53.039Z,1.20
2019-01-09T10:47:35.185Z,6.80
2019-01-09T10:50:13.861Z,2.62
2019-01-09T10:52:52.393Z,2.12
2019-01-09T10:55:30.744Z,2.10
2019-01-09T10:58:11.842Z,1.90
2019-01-09T11:00:48.495Z,1.72
2019-01-09T11:03:23.388Z,1.60
2019-01-09T11:06:00.273Z,2.70
2019-01-09T11:08:46.832Z,1.50
2019-01-09T11:26:21.712Z,2.45
2019-01-09T11:49:49.394Z,2.17
2019-01-09T11:55:28.563Z,1.85
2019-01-09T11:58:21.588Z,2.12
2019-01-09T12:01:08.841Z,2.60
2019-01-09T12:03:45.713Z,1.95
2019-01-09T12:06:25.409Z,2.15
2019-01-09T12:09:04.604Z,1.80
2019-01-09T12:11:48.139Z,1.85
2019-01-09T12:14:27.332Z,2.22
2019-01-09T12:17:02.886Z,2.70
2019-01-09T12:22:37.389Z,2.72
2019-01-09T12:25:17.029Z,3.85
2019-01-09T12:27:52.778Z,1.50
2019-01-09T12:30:33.556Z,1.55
2019-01-09T12:33:10.637Z,2.50
2019-01-09T12:35:50.654Z,2.25
2019-01-09T12:38:26.517Z,1.40
2019-01-09T12:41:02.587Z,2.10
2019-01-09T12:43:40.955Z,1.75
2019-01-09T12:46:19.243Z,1.50
2019-01-09T12:49:02.330Z,1.45
2019-01-09T12:51:39.782Z,1.98
2019-01-09T12:54:14.703Z,1.65
2019-01-09T12:59:55.524Z,1.95
2019-01-09T13:02:33.701Z,2.92
2019-01-09T13:05:12.194Z,2.37
2019-01-09T13:07:52.367Z,3.60
2019-01-09T13:10:36.502Z,2.92
2019-01-09T13:13:18.446Z,3.62
2019-01-09T13:16:02.779Z,4.10
2019-01-09T13:18:52.233Z,1.95
2019-01-09T13:21:35.908Z,2.00
2019-01-09T13:33:23.805Z,3.85
2019-01-09T13:36:02.943Z,2.50
2019-01-09T13:38:51.063Z,3.12
2019-01-09T13:44:22.755Z,2.02
2019-01-09T13:47:06.620Z,1.80
2019-01-09T13:52:50.408Z,2.83
2019-01-09T13:55:37.795Z,1.45
2019-01-09T13:58:17.656Z,2.00
2019-01-09T14:01:07.245Z,1.37
2019-01-09T14:04:07.790Z,2.35
2019-01-09T14:06:50.051Z,3.10
2019-01-09T14:09:46.733Z,2.30
2019-01-09T14:12:29.862Z,2.80
2019-01-09T14:15:08.340Z,2.12
2019-01-09T14:17:51.027Z,4.95
2019-01-09T14:20:28.170Z,4.17
2019-01-09T14:23:12.621Z,3.67
2019-01-09T14:25:50.326Z,5.35
2019-01-09T14:28:31.911Z,4.12
2019-01-09T14:31:13.027Z,4.53
2019-01-09T14:33:52.603Z,3.20
2019-01-09T14:36:33.839Z,6.85
2019-01-09T14:39:09.107Z,6.15
2019-01-09T14:41:44.040Z,3.35
2019-01-09T14:44:21.308Z,3.33
2019-01-09T14:46:59.828Z,1.65
2019-01-09T14:49:35.252Z,2.55
2019-01-09T14:52:11.395Z,2.12
2019-01-09T14:54:58.066Z,2.50
2019-01-09T14:57:30.990Z,2.15
2019-01-09T15:00:09.830Z,2.45
2019-01-09T15:02:47.506Z,2.40
2019-01-09T15:05:24.803Z,2.45
2019-01-09T15:08:05.160Z,2.00
2019-01-09T15:10:42.828Z,3.22
2019-01-09T15:13:22.240Z,3.50
2019-01-09T15:15:59.543Z,2.00
2019-01-09T15:18:36.657Z,2.50
2019-01-09T15:21:13.348Z,2.80
2019-01-09T15:23:53.145Z,3.05
2019-01-09T15:26:27.656Z,2.70
2019-01-09T15:29:04.314Z,4.15
2019-01-09T15:31:44.729Z,3.62
2019-01-09T15:34:26.262Z,6.10
2019-01-09T15:37:18.091Z,3.55
2019-01-09T15:40:05.665Z,4.55
2019-01-09T15:42:46.292Z,3.15
2019-01-09T15:45:28.179Z,3.33
2019-01-09T15:48:06.110Z,3.30
2019-01-09T15:50:40.553Z,3.83
2019-01-09T15:53:18.298Z,4.22
2019-01-09T15:55:55.111Z,4.12
2019-01-09T15:58:37.862Z,3.80
2019-01-09T16:01:13.358Z,2.47
2019-01-09T16:03:49.501Z,6.25
2019-01-09T16:06:25.207Z,4.03
2019-01-09T16:09:01.101Z,4.05
2019-01-09T16:11:36.429Z,3.92
2019-01-09T16:14:11.149Z,3.60
2019-01-09T16:16:46.829Z,3.77
2019-01-09T16:19:23.111Z,4.65
2019-01-09T16:22:02.315Z,4.85
2019-01-09T16:24:42.171Z,5.78
2019-01-09T16:27:18.292Z,4.70
2019-01-09T16:29:54.172Z,5.22
2019-01-09T16:32:30.644Z,4.75
2019-01-09T16:35:03.885Z,5.30
2019-01-09T16:40:23.303Z,5.25
2019-01-09T16:43:07.252Z,4.08
2019-01-09T16:48:40.450Z,4.75
2019-01-09T16:51:17.109Z,4.10
2019-01-09T16:53:52.042Z,4.47
2019-01-09T16:56:28.701Z,6.42
2019-01-09T16:59:04.281Z,4.60
2019-01-09T17:01:38.962Z,4.62
2019-01-09T17:04:14.359Z,4.80
2019-01-09T17:06:50.163Z,5.70
2019-01-09T17:09:26.080Z,5.95
2019-01-09T17:11:58.736Z,4.45
2019-01-09T17:14:33.897Z,5.58
2019-01-09T17:17:08.653Z,4.50
2019-01-09T17:19:43.253Z,4.55
2019-01-09T17:22:19.159Z,6.25
2019-01-09T17:24:55.229Z,4.60
2019-01-09T17:27:30.177Z,4.40
2019-01-09T17:30:07.268Z,3.98
2019-01-09T17:32:42.332Z,4.40
2019-01-09T17:35:18.678Z,4.53
2019-01-09T17:37:53.808Z,5.17
2019-01-09T17:40:28.603Z,5.40
2019-01-09T17:45:59.293Z,5.83
2019-01-09T17:48:34.904Z,5.70
2019-01-09T17:51:09.973Z,4.60
2019-01-09T17:53:44.136Z,5.67
2019-01-09T17:56:20.644Z,4.72
2019-01-09T17:58:56.323Z,5.60
2019-01-09T18:01:29.111Z,4.75
2019-01-09T18:04:00.473Z,5.00
2019-01-09T18:06:35.720Z,5.87
2019-01-09T18:09:11.605Z,4.50
2019-01-09T18:11:46.811Z,3.45
2019-01-09T18:14:24.051Z,4.70
2019-01-09T18:16:59.912Z,4.50
2019-01-09T18:19:35.269Z,5.10
2019-01-09T18:22:10.396Z,8.13
2019-01-09T18:24:45.331Z,5.17
2019-01-09T18:27:19.555Z,11.05
2019-01-09T18:29:55.755Z,4.22
2019-01-09T18:32:35.575Z,6.92
2019-01-09T18:35:18.460Z,6.30
2019-01-09T18:38:00.150Z,5.47
2019-01-09T18:40:42.503Z,4.50
2019-01-09T18:43:30.317Z,4.87
2019-01-09T18:46:29.878Z,5.12
2019-01-09T18:49:11.401Z,4.50
2019-01-09T18:51:53.382Z,5.22
2019-01-09T18:54:42.681Z,4.85
2019-01-09T18:57:19.353Z,5.80
2019-01-09T18:59:54.155Z,5.40
2019-01-09T19:02:31.375Z,5.45
2019-01-09T19:05:06.219Z,5.33
2019-01-09T19:07:42.012Z,6.50
2019-01-09T19:10:18.389Z,7.72
2019-01-09T19:12:53.101Z,7.05
2019-01-09T19:15:24.094Z,6.92
2019-01-09T19:17:59.108Z,6.85
2019-01-09T19:20:33.772Z,6.53
2019-01-09T19:23:10.822Z,7.47
2019-01-09T19:25:48.695Z,6.65
2019-01-09T19:28:23.687Z,6.50
2019-01-09T19:30:59.563Z,8.18
2019-01-09T19:33:40.650Z,6.47
2019-01-09T19:36:22.902Z,8.15
2019-01-09T19:39:00.878Z,7.55
2019-01-09T19:41:36.669Z,6.62
2019-01-09T19:44:11.983Z,9.18
2019-01-09T19:46:45.189Z,7.60
2019-01-09T19:49:20.671Z,6.15
2019-01-09T19:51:55.576Z,6.25
2019-01-09T19:54:40.689Z,6.90
2019-01-09T19:57:15.555Z,9.05
2019-01-09T19:59:55.529Z,7.05
2019-01-09T20:02:32.181Z,9.20
2019-01-09T20:05:14.786Z,7.83
2019-01-09T20:07:49.749Z,9.28
2019-01-09T20:10:26.988Z,7.00
2019-01-09T20:13:03.001Z,7.75
2019-01-09T20:15:36.351Z,7.12
2019-01-09T20:18:11.156Z,7.85
2019-01-09T20:20:47.357Z,6.35
2019-01-09T20:23:22.385Z,6.15
2019-01-09T20:25:58.687Z,7.65
2019-01-09T20:28:34.176Z,7.90
2019-01-09T20:31:10.078Z,5.05
2019-01-09T20:33:45.923Z,6.60
2019-01-09T20:36:21.095Z,6.12
2019-01-09T20:38:56.942Z,6.25
2019-01-09T20:41:35.521Z,6.70
2019-01-09T20:44:08.261Z,6.03
2019-01-09T20:46:53.724Z,5.78
2019-01-09T20:49:28.843Z,5.62
2019-01-09T20:55:01.395Z,4.22
2019-01-09T20:57:36.838Z,4.90
2019-01-09T21:00:14.378Z,4.72
2019-01-09T21:02:50.279Z,6.30
2019-01-09T21:06:39.882Z,4.60
2019-01-09T21:09:15.419Z,4.90
2019-01-09T21:11:48.685Z,4.30
2019-01-09T21:17:17.416Z,5.55
2019-01-09T21:19:49.074Z,5.22
2019-01-09T21:22:36.843Z,5.45
2019-01-09T21:25:06.828Z,5.10
2019-01-09T21:27:42.077Z,4.03
2019-01-09T21:30:15.618Z,4.97
2019-01-09T21:35:49.674Z,4.85
2019-01-09T21:38:31.336Z,5.50
2019-01-09T21:41:13.041Z,4.30
2019-01-09T21:43:54.573Z,6.28
2019-01-09T21:46:45.914Z,5.37
2019-01-09T21:52:19.020Z,5.08
2019-01-09T21:54:51.934Z,4.75
2019-01-09T21:57:34.260Z,5.12
2019-01-09T22:00:12.040Z,4.85
2019-01-09T22:02:47.936Z,3.40
2019-01-09T22:05:33.702Z,4.45
2019-01-09T22:08:17.167Z,4.17
2019-01-09T22:10:52.589Z,4.65
2019-01-09T22:13:38.527Z,5.15
2019-01-09T22:16:11.737Z,4.25
2019-01-09T22:18:41.094Z,4.60
2019-01-09T22:21:28.006Z,4.70
2019-01-09T22:24:07.135Z,4.60
2019-01-09T22:26:41.764Z,4.47
2019-01-09T22:35:21.445Z,4.15
2019-01-09T22:38:09.088Z,4.78
2019-01-09T22:40:47.641Z,6.80
2019-01-09T22:43:22.721Z,5.28
2019-01-09T22:45:57.610Z,5.90
2019-01-09T22:51:26.286Z,4.95
2019-01-09T22:54:01.371Z,4.60
2019-01-09T22:56:37.672Z,5.80
2019-01-09T22:59:25.025Z,5.80
2019-01-09T23:02:00.766Z,5.55
2019-01-09T23:04:37.198Z,4.85
2019-01-09T23:07:07.699Z,5.33
2019-01-09T23:09:57.467Z,6.97
2019-01-09T23:12:33.280Z,5.50
2019-01-09T23:18:04.750Z,6.95
2019-01-09T23:20:40.177Z,10.25
2019-01-09T23:26:31.433Z,7.30
2019-01-09T23:29:06.686Z,8.65
2019-01-09T23:31:36.540Z,8.15
2019-01-09T23:34:08.330Z,7.10
2019-01-09T23:36:41.808Z,6.50
2019-01-09T23:39:11.057Z,6.65
2019-01-09T23:41:46.530Z,7.60
2019-01-09T23:44:19.411Z,7.75
2019-01-09T23:46:50.630Z,6.85
2019-01-09T23:49:28.000Z,5.42
2019-01-09T23:52:15.085Z,6.40
2019-01-09T23:54:51.212Z,6.20
2019-01-09T23:57:24.358Z,7.10
2019-01-09T23:59:56.786Z,7.20
